Time,TemperatureF,DewpointF,PressureIn,WindDirection,WindDirectionDegrees,WindSpeedMPH,WindSpeedGustMPH,Humidity,HourlyPrecipIn,Conditions,Clouds,dailyrainin,SoftwareType,DateUTC
2013-08-31 00:00:00,75.2,73.5,29.74,ENE,68,0.1,0.2,94,0.00,,,0.00,WUHU216HW,2013-08-31 04:00:00,
2013-08-31 00:01:00,75.2,73.5,29.73,North,0,0.0,0.0,94,0.00,,,0.00,WUHU216HW,2013-08-31 04:01:00,
2013-08-31 00:02:00,75.2,73.5,29.73,North,0,0.0,0.0,94,0.00,,,0.00,WUHU216HW,2013-08-31 04:02:00,
2013-08-31 00:04:00,75.2,73.5,29.74,North,0,0.0,0.0,94,0.00,,,0.00,WUHU216HW,2013-08-31 04:04:00,
2013-08-31 00:05:00,75.2,73.5,29.74,North,0,0.0,0.0,94,0.00,,,0.00,WUHU216HW,2013-08-31 04:05:00,
2013-08-31 00:10:00,75.2,73.5,29.74,North,0,0.0,0.0,94,0.00,,,0.00,WUHU216HW,2013-08-31 04:10:00,
2013-08-31 00:15:00,75.2,73.5,29.74,North,0,0.0,0.0,94,0.00,,,0.00,WUHU216HW,2013-08-31 04:15:00,
2013-08-31 00:20:00,75.2,73.5,29.73,East,81,1.8,2.2,94,0.00,,,0.00,WUHU216HW,2013-08-31 04:20:00,
2013-08-31 00:25:00,75.1,73.4,29.73,SW,231,0.9,1.8,94,0.00,,,0.00,WUHU216HW,2013-08-31 04:25:00,
2013-08-31 00:30:00,74.9,73.2,29.73,West,262,1.9,2.0,94,0.00,,,0.00,WUHU216HW,2013-08-31 04:30:00,
2013-08-31 00:35:00,74.9,73.5,29.73,ENE,74,1.5,2.0,96,0.00,,,0.00,WUHU216HW,2013-08-31 04:35:00,
2013-08-31 00:40:00,74.9,73.5,29.73,NNE,16,1.4,1.6,96,0.00,,,0.00,WUHU216HW,2013-08-31 04:40:00,
2013-08-31 00:45:00,74.5,73.1,29.73,NNE,12,1.4,2.5,96,0.00,,,0.00,WUHU216HW,2013-08-31 04:45:00,
2013-08-31 00:50:00,74.3,72.9,29.73,NNE,12,1.5,1.8,96,0.00,,,0.00,WUHU216HW,2013-08-31 04:50:00,
2013-08-31 00:55:00,74.2,72.8,29.73,NNW,347,0.7,0.7,96,0.00,,,0.00,WUHU216HW,2013-08-31 04:55:00,
2013-08-31 01:00:00,74.0,72.6,29.72,North,0,0.5,1.1,96,0.00,,,0.00,WUHU216HW,2013-08-31 05:00:00,
2013-08-31 01:05:00,73.8,72.4,29.73,NNE,13,0.3,0.9,96,0.00,,,0.00,WUHU216HW,2013-08-31 05:05:00,
2013-08-31 01:10:00,73.6,72.2,29.73,NE,49,2.0,2.7,96,0.00,,,0.00,WUHU216HW,2013-08-31 05:10:00,
2013-08-31 01:15:00,73.4,72.0,29.73,North,0,1.2,1.8,96,0.00,,,0.00,WUHU216HW,2013-08-31 05:15:00,
2013-08-31 01:20:00,73.3,71.9,29.72,North,11,1.4,2.2,96,0.00,,,0.00,WUHU216HW,2013-08-31 05:20:00,
2013-08-31 01:25:00,73.1,71.7,29.73,NE,54,3.1,3.4,96,0.00,,,0.00,WUHU216HW,2013-08-31 05:25:00,
2013-08-31 01:30:00,72.9,71.5,29.73,ENE,71,0.8,1.1,96,0.00,,,0.00,WUHU216HW,2013-08-31 05:30:00,
2013-08-31 01:35:00,72.7,71.0,29.73,NNE,21,4.5,6.0,94,0.00,,,0.00,WUHU216HW,2013-08-31 05:35:00,
2013-08-31 01:40:00,72.5,70.8,29.72,NNE,23,3.0,4.0,94,0.00,,,0.00,WUHU216HW,2013-08-31 05:40:00,
2013-08-31 01:45:00,72.4,70.7,29.72,NE,36,1.8,2.2,94,0.00,,,0.00,WUHU216HW,2013-08-31 05:45:00,
2013-08-31 01:50:00,72.0,70.3,29.72,North,11,1.6,2.7,94,0.00,,,0.00,WUHU216HW,2013-08-31 05:50:00,
2013-08-31 01:55:00,71.8,70.1,29.72,North,358,1.9,2.5,94,0.00,,,0.00,WUHU216HW,2013-08-31 05:55:00,
2013-08-31 02:00:00,71.6,69.9,29.72,North,0,1.6,2.0,94,0.00,,,0.00,WUHU216HW,2013-08-31 06:00:00,
2013-08-31 02:05:00,71.5,69.8,29.72,NNE,16,1.6,2.5,94,0.00,,,0.00,WUHU216HW,2013-08-31 06:05:00,
2013-08-31 02:10:00,71.3,69.6,29.72,North,0,0.0,0.0,94,0.00,,,0.00,WUHU216HW,2013-08-31 06:10:00,
2013-08-31 02:15:00,71.3,69.6,29.72,NNE,23,0.1,0.9,94,0.00,,,0.00,WUHU216HW,2013-08-31 06:15:00,
2013-08-31 02:20:00,71.3,69.6,29.71,NNE,23,0.1,0.4,94,0.00,,,0.00,WUHU216HW,2013-08-31 06:20:00,
2013-08-31 02:25:00,71.1,69.4,29.71,NE,42,0.7,0.9,94,0.00,,,0.00,WUHU216HW,2013-08-31 06:25:00,
2013-08-31 02:30:00,70.9,69.2,29.71,North,7,0.6,0.9,94,0.00,,,0.00,WUHU216HW,2013-08-31 06:30:00,
2013-08-31 02:35:00,70.6,68.9,29.71,NNE,18,1.1,2.0,94,0.00,,,0.00,WUHU216HW,2013-08-31 06:35:00,
2013-08-31 02:40:00,70.2,68.5,29.72,NW,310,0.4,1.8,94,0.00,,,0.00,WUHU216HW,2013-08-31 06:40:00,
2013-08-31 02:45:00,70.0,68.6,29.71,North,0,0.5,0.9,96,0.00,,,0.00,WUHU216HW,2013-08-31 06:45:00,
2013-08-31 02:50:00,69.7,68.3,29.72,NE,45,1.0,1.8,96,0.00,,,0.00,WUHU216HW,2013-08-31 06:50:00,
2013-08-31 02:55:00,69.5,68.1,29.72,North,0,0.0,0.0,96,0.00,,,0.00,WUHU216HW,2013-08-31 06:55:00,
2013-08-31 03:00:00,69.1,67.7,29.72,NE,53,0.4,0.7,96,0.00,,,0.00,WUHU216HW,2013-08-31 07:00:00,
2013-08-31 03:05:00,68.9,67.5,29.72,ENE,66,0.7,1.1,96,0.00,,,0.00,WUHU216HW,2013-08-31 07:05:00,
2013-08-31 03:10:00,68.6,67.2,29.72,ESE,116,0.9,1.1,96,0.00,,,0.00,WUHU216HW,2013-08-31 07:10:00,
2013-08-31 03:15:00,68.4,67.0,29.73,SW,225,1.6,1.6,96,0.00,,,0.00,WUHU216HW,2013-08-31 07:15:00,
2013-08-31 03:21:00,68.0,66.6,29.73,SW,225,0.1,0.4,96,0.00,,,0.00,WUHU216HW,2013-08-31 07:21:00,
2013-08-31 03:26:00,68.0,66.6,29.73,North,0,0.0,0.0,96,0.00,,,0.00,WUHU216HW,2013-08-31 07:26:00,
2013-08-31 03:31:00,68.0,66.6,29.74,North,0,0.0,0.0,96,0.00,,,0.00,WUHU216HW,2013-08-31 07:31:00,
2013-08-31 03:36:00,68.2,66.8,29.74,North,0,0.0,0.0,96,0.00,,,0.00,WUHU216HW,2013-08-31 07:36:00,
2013-08-31 03:41:00,68.2,66.8,29.74,South,180,0.2,0.4,96,0.00,,,0.00,WUHU216HW,2013-08-31 07:41:00,
2013-08-31 03:46:00,68.4,67.0,29.74,North,0,0.0,0.0,96,0.00,,,0.00,WUHU216HW,2013-08-31 07:46:00,
2013-08-31 03:51:00,68.6,67.2,29.74,North,0,0.0,0.0,96,0.00,,,0.00,WUHU216HW,2013-08-31 07:51:00,
2013-08-31 03:56:00,68.6,67.2,29.74,North,0,0.0,0.0,96,0.00,,,0.00,WUHU216HW,2013-08-31 07:56:00,
2013-08-31 04:01:00,68.6,67.2,29.74,North,0,0.0,0.0,96,0.00,,,0.00,WUHU216HW,2013-08-31 08:01:00,
2013-08-31 04:06:00,68.8,67.4,29.74,North,0,0.0,0.0,96,0.00,,,0.00,WUHU216HW,2013-08-31 08:06:00,
2013-08-31 04:11:00,68.8,67.4,29.74,North,0,0.0,0.0,96,0.00,,,0.00,WUHU216HW,2013-08-31 08:11:00,
2013-08-31 04:16:00,68.8,67.4,29.74,North,0,0.0,0.0,96,0.00,,,0.00,WUHU216HW,2013-08-31 08:16:00,
2013-08-31 04:21:00,68.8,67.4,29.74,North,0,0.0,0.0,96,0.00,,,0.00,WUHU216HW,2013-08-31 08:21:00,
2013-08-31 04:26:00,68.8,67.4,29.74,North,0,0.0,0.0,96,0.00,,,0.00,WUHU216HW,2013-08-31 08:26:00,
2013-08-31 04:31:00,68.8,67.4,29.74,North,0,0.0,0.0,96,0.00,,,0.00,WUHU216HW,2013-08-31 08:31:00,
2013-08-31 04:36:00,68.8,67.4,29.74,North,0,0.0,0.0,96,0.00,,,0.00,WUHU216HW,2013-08-31 08:36:00,
2013-08-31 04:41:00,68.8,67.4,29.74,North,0,0.0,0.0,96,0.00,,,0.00,WUHU216HW,2013-08-31 08:41:00,
2013-08-31 04:46:00,68.8,67.4,29.74,North,0,0.0,0.0,96,0.00,,,0.00,WUHU216HW,2013-08-31 08:46:00,
2013-08-31 04:51:00,68.8,67.4,29.74,North,0,0.0,0.0,96,0.00,,,0.00,WUHU216HW,2013-08-31 08:51:00,
2013-08-31 04:56:00,68.6,67.2,29.74,North,0,0.0,0.0,96,0.00,,,0.00,WUHU216HW,2013-08-31 08:56:00,
2013-08-31 05:01:00,68.4,67.0,29.74,North,0,0.0,0.0,96,0.00,,,0.00,WUHU216HW,2013-08-31 09:01:00,
2013-08-31 05:06:00,68.2,67.2,29.74,NNW,338,0.2,0.7,97,0.00,,,0.00,WUHU216HW,2013-08-31 09:06:00,
2013-08-31 05:11:00,68.0,67.0,29.74,North,0,0.0,0.0,97,0.00,,,0.00,WUHU216HW,2013-08-31 09:11:00,
2013-08-31 05:16:00,67.9,66.9,29.74,NNW,338,0.3,0.4,97,0.00,,,0.00,WUHU216HW,2013-08-31 09:16:00,
2013-08-31 05:21:00,67.9,66.9,29.74,WSW,253,0.3,0.4,97,0.00,,,0.00,WUHU216HW,2013-08-31 09:21:00,
2013-08-31 05:26:00,67.9,66.9,29.74,NNE,23,0.0,0.2,97,0.00,,,0.00,WUHU216HW,2013-08-31 09:26:00,
2013-08-31 05:31:00,67.9,66.9,29.74,North,0,0.0,0.0,97,0.00,,,0.00,WUHU216HW,2013-08-31 09:31:00,
2013-08-31 05:36:00,68.0,67.0,29.74,NNE,23,0.1,0.4,97,0.00,,,0.00,WUHU216HW,2013-08-31 09:36:00,
2013-08-31 05:41:00,68.0,67.0,29.74,NNE,23,0.2,0.4,97,0.00,,,0.00,WUHU216HW,2013-08-31 09:41:00,
2013-08-31 05:46:00,68.0,66.6,29.74,North,0,0.0,0.0,96,0.00,,,0.00,WUHU216HW,2013-08-31 09:46:00,
2013-08-31 05:51:00,68.0,67.0,29.74,WNW,293,0.3,0.4,97,0.00,,,0.00,WUHU216HW,2013-08-31 09:51:00,
2013-08-31 05:56:00,68.0,66.6,29.74,North,0,0.0,0.0,96,0.00,,,0.00,WUHU216HW,2013-08-31 09:56:00,
2013-08-31 06:01:00,68.0,67.0,29.74,NNE,23,0.5,1.1,97,0.00,,,0.00,WUHU216HW,2013-08-31 10:01:00,
2013-08-31 06:06:00,68.2,67.2,29.74,NNE,23,0.6,1.1,97,0.00,,,0.00,WUHU216HW,2013-08-31 10:06:00,
2013-08-31 06:11:00,68.2,66.8,29.74,North,0,0.0,0.0,96,0.00,,,0.00,WUHU216HW,2013-08-31 10:11:00,
2013-08-31 06:16:00,68.2,67.2,29.74,North,0,0.0,0.0,97,0.00,,,0.00,WUHU216HW,2013-08-31 10:16:00,
2013-08-31 06:21:00,68.0,67.0,29.74,North,0,0.0,0.0,97,0.00,,,0.00,WUHU216HW,2013-08-31 10:21:00,
2013-08-31 06:26:00,68.0,67.0,29.74,SSW,203,0.3,1.1,97,0.00,,,0.00,WUHU216HW,2013-08-31 10:26:00,
2013-08-31 06:32:00,67.9,66.9,29.74,North,0,0.0,0.0,97,0.00,,,0.00,WUHU216HW,2013-08-31 10:32:00,
2013-08-31 06:37:00,67.7,66.7,29.74,North,0,0.0,0.0,97,0.00,,,0.00,WUHU216HW,2013-08-31 10:37:00,
2013-08-31 06:42:00,67.5,66.5,29.74,North,0,0.0,0.0,97,0.00,,,0.00,WUHU216HW,2013-08-31 10:42:00,
2013-08-31 06:47:00,67.3,66.3,29.75,North,0,0.0,0.0,97,0.00,,,0.00,WUHU216HW,2013-08-31 10:47:00,
2013-08-31 06:52:00,67.3,66.3,29.75,NNE,23,0.7,1.1,97,0.00,,,0.00,WUHU216HW,2013-08-31 10:52:00,
2013-08-31 06:57:00,67.3,66.3,29.75,ENE,58,0.9,1.1,97,0.00,,,0.00,WUHU216HW,2013-08-31 10:57:00,
2013-08-31 07:02:00,67.3,66.3,29.75,NNE,23,1.1,1.6,97,0.00,,,0.00,WUHU216HW,2013-08-31 11:02:00,
2013-08-31 07:07:00,67.3,66.3,29.75,NNE,23,0.2,0.2,97,0.00,,,0.00,WUHU216HW,2013-08-31 11:07:00,
2013-08-31 07:12:00,67.3,66.3,29.75,NE,40,0.8,1.1,97,0.00,,,0.00,WUHU216HW,2013-08-31 11:12:00,
2013-08-31 07:17:00,67.3,66.3,29.76,NNW,338,0.6,0.7,97,0.00,,,0.00,WUHU216HW,2013-08-31 11:17:00,
2013-08-31 07:22:00,67.3,66.3,29.76,NNE,26,0.9,1.3,97,0.00,,,0.00,WUHU216HW,2013-08-31 11:22:00,
2013-08-31 07:27:00,67.5,66.5,29.76,NE,45,0.5,0.9,97,0.00,,,0.00,WUHU216HW,2013-08-31 11:27:00,
2013-08-31 07:32:00,67.5,66.5,29.76,NE,45,0.8,1.1,97,0.00,,,0.00,WUHU216HW,2013-08-31 11:32:00,
2013-08-31 07:37:00,67.7,66.7,29.77,North,0,0.1,0.2,97,0.00,,,0.00,WUHU216HW,2013-08-31 11:37:00,
2013-08-31 07:42:00,67.7,66.7,29.76,NNE,23,0.3,0.7,97,0.00,,,0.00,WUHU216HW,2013-08-31 11:42:00,
2013-08-31 07:47:00,67.7,66.7,29.77,North,0,0.0,0.0,97,0.00,,,0.00,WUHU216HW,2013-08-31 11:47:00,
2013-08-31 07:52:00,67.9,66.9,29.77,NNE,23,0.1,0.4,97,0.00,,,0.00,WUHU216HW,2013-08-31 11:52:00,
2013-08-31 07:57:00,68.0,66.6,29.77,NNE,23,0.1,0.2,96,0.00,,,0.00,WUHU216HW,2013-08-31 11:57:00,
2013-08-31 08:02:00,68.0,66.6,29.77,NNE,26,1.2,1.8,96,0.00,,,0.00,WUHU216HW,2013-08-31 12:02:00,
2013-08-31 08:07:00,68.2,66.8,29.77,NNE,23,0.5,1.1,96,0.00,,,0.00,WUHU216HW,2013-08-31 12:07:00,
2013-08-31 08:12:00,68.2,66.8,29.77,North,0,0.0,0.0,96,0.00,,,0.00,WUHU216HW,2013-08-31 12:12:00,
2013-08-31 08:17:00,68.4,67.4,29.77,NNE,23,0.8,0.9,97,0.00,,,0.00,WUHU216HW,2013-08-31 12:17:00,
2013-08-31 08:22:00,68.4,67.4,29.77,NNE,28,1.5,2.2,97,0.00,,,0.00,WUHU216HW,2013-08-31 12:22:00,
2013-08-31 08:27:00,68.6,67.6,29.77,North,353,2.0,2.7,97,0.00,,,0.00,WUHU216HW,2013-08-31 12:27:00,
2013-08-31 08:32:00,68.8,67.8,29.77,NNE,33,0.7,1.1,97,0.00,,,0.00,WUHU216HW,2013-08-31 12:32:00,
2013-08-31 08:37:00,68.8,67.8,29.77,North,6,1.0,1.8,97,0.00,,,0.00,WUHU216HW,2013-08-31 12:37:00,
2013-08-31 08:42:00,68.9,67.9,29.77,ENE,65,2.0,2.5,97,0.00,,,0.00,WUHU216HW,2013-08-31 12:42:00,
2013-08-31 08:47:00,69.1,67.7,29.77,NNE,28,0.6,0.9,96,0.00,,,0.00,WUHU216HW,2013-08-31 12:47:00,
2013-08-31 08:52:00,69.5,68.5,29.78,NE,34,1.2,1.6,97,0.00,,,0.00,WUHU216HW,2013-08-31 12:52:00,
2013-08-31 08:57:00,69.7,68.7,29.78,ENE,67,0.7,1.1,97,0.00,,,0.00,WUHU216HW,2013-08-31 12:57:00,
2013-08-31 09:02:00,69.8,68.8,29.78,NE,45,1.4,1.8,97,0.00,,,0.00,WUHU216HW,2013-08-31 13:02:00,
2013-08-31 09:07:00,70.2,69.2,29.79,North,354,2.7,3.6,97,0.00,,,0.00,WUHU216HW,2013-08-31 13:07:00,
2013-08-31 09:12:00,70.2,69.2,29.79,NNE,14,3.3,4.0,97,0.00,,,0.00,WUHU216HW,2013-08-31 13:12:00,
2013-08-31 09:17:00,70.4,69.4,29.79,NNW,343,0.8,1.1,97,0.00,,,0.00,WUHU216HW,2013-08-31 13:17:00,
2013-08-31 09:22:00,70.4,69.4,29.79,NNE,22,2.1,2.9,97,0.00,,,0.00,WUHU216HW,2013-08-31 13:22:00,
2013-08-31 09:27:00,70.4,69.4,29.79,East,80,0.9,1.8,97,0.00,,,0.00,WUHU216HW,2013-08-31 13:27:00,
2013-08-31 09:33:00,70.6,69.2,29.79,ENE,66,0.6,0.7,96,0.00,,,0.00,WUHU216HW,2013-08-31 13:33:00,
2013-08-31 09:38:00,70.7,69.7,29.79,NNW,347,1.8,2.7,97,0.00,,,0.00,WUHU216HW,2013-08-31 13:38:00,
2013-08-31 09:43:00,70.7,69.3,29.79,NE,50,0.7,1.1,96,0.00,,,0.00,WUHU216HW,2013-08-31 13:43:00,
2013-08-31 09:48:00,70.9,69.5,29.80,ESE,113,1.2,1.6,96,0.00,,,0.00,WUHU216HW,2013-08-31 13:48:00,
2013-08-31 09:53:00,70.9,69.5,29.80,NNE,18,0.5,0.9,96,0.00,,,0.00,WUHU216HW,2013-08-31 13:53:00,
2013-08-31 09:58:00,71.3,69.9,29.80,ENE,62,0.6,0.7,96,0.00,,,0.00,WUHU216HW,2013-08-31 13:58:00,
2013-08-31 10:03:00,71.6,70.2,29.80,East,101,1.0,2.2,96,0.00,,,0.00,WUHU216HW,2013-08-31 14:03:00,
2013-08-31 10:08:00,71.5,70.1,29.81,NNE,23,1.1,1.1,96,0.00,,,0.00,WUHU216HW,2013-08-31 14:08:00,
2013-08-31 10:13:00,71.3,69.9,29.80,NE,35,0.4,1.1,96,0.00,,,0.00,WUHU216HW,2013-08-31 14:13:00,
2013-08-31 10:18:00,71.3,69.9,29.80,NE,45,0.3,1.1,96,0.00,,,0.00,WUHU216HW,2013-08-31 14:18:00,
2013-08-31 10:23:00,71.5,70.1,29.80,ENE,77,0.4,0.9,96,0.00,,,0.00,WUHU216HW,2013-08-31 14:23:00,
2013-08-31 10:28:00,71.3,69.9,29.81,East,90,1.5,2.5,96,0.00,,,0.00,WUHU216HW,2013-08-31 14:28:00,
2013-08-31 10:33:00,71.5,69.8,29.81,NNE,24,0.8,1.1,94,0.00,,,0.00,WUHU216HW,2013-08-31 14:33:00,
2013-08-31 10:38:00,71.8,70.1,29.81,North,1,2.0,2.5,94,0.00,,,0.00,WUHU216HW,2013-08-31 14:38:00,
2013-08-31 10:43:00,72.2,70.5,29.81,East,82,1.3,1.6,94,0.00,,,0.00,WUHU216HW,2013-08-31 14:43:00,
2013-08-31 10:48:00,72.5,70.8,29.80,East,89,1.3,2.0,94,0.00,,,0.00,WUHU216HW,2013-08-31 14:48:00,
2013-08-31 10:53:00,72.5,70.4,29.80,ENE,66,2.3,2.7,93,0.00,,,0.00,WUHU216HW,2013-08-31 14:53:00,
2013-08-31 10:58:00,72.7,70.6,29.80,East,92,1.8,2.5,93,0.00,,,0.00,WUHU216HW,2013-08-31 14:58:00,
2013-08-31 11:03:00,72.7,70.6,29.79,NE,44,2.7,3.1,93,0.00,,,0.00,WUHU216HW,2013-08-31 15:03:00,
2013-08-31 11:08:00,73.1,71.4,29.79,East,96,3.3,4.0,94,0.00,,,0.00,WUHU216HW,2013-08-31 15:08:00,
2013-08-31 11:13:00,73.3,71.2,29.80,North,0,3.0,3.4,93,0.00,,,0.00,WUHU216HW,2013-08-31 15:13:00,
2013-08-31 11:18:00,73.4,71.3,29.80,ESE,113,1.0,1.8,93,0.00,,,0.00,WUHU216HW,2013-08-31 15:18:00,
2013-08-31 11:23:00,73.6,71.5,29.79,East,86,3.3,3.6,93,0.00,,,0.00,WUHU216HW,2013-08-31 15:23:00,
2013-08-31 11:28:00,74.3,71.9,29.79,East,90,1.7,3.1,92,0.00,,,0.00,WUHU216HW,2013-08-31 15:28:00,
2013-08-31 11:33:00,74.9,72.1,29.78,ENE,73,2.4,4.3,91,0.00,,,0.00,WUHU216HW,2013-08-31 15:33:00,
2013-08-31 11:38:00,75.6,72.8,29.79,North,9,1.2,2.5,91,0.00,,,0.00,WUHU216HW,2013-08-31 15:38:00,
2013-08-31 11:43:00,76.3,73.1,29.78,East,100,4.9,7.2,90,0.00,,,0.00,WUHU216HW,2013-08-31 15:43:00,
2013-08-31 11:48:00,76.5,72.6,29.78,NE,42,2.1,2.7,88,0.00,,,0.00,WUHU216HW,2013-08-31 15:48:00,
2013-08-31 11:53:00,76.9,72.6,29.79,North,10,2.1,2.9,87,0.00,,,0.00,WUHU216HW,2013-08-31 15:53:00,
2013-08-31 11:58:00,76.9,72.6,29.79,ENE,71,2.1,4.3,87,0.00,,,0.00,WUHU216HW,2013-08-31 15:58:00,
2013-08-31 12:03:00,76.9,72.2,29.79,East,85,1.6,2.0,85,0.00,,,0.00,WUHU216HW,2013-08-31 16:03:00,
2013-08-31 12:08:00,77.0,72.3,29.79,East,90,2.1,2.2,85,0.00,,,0.00,WUHU216HW,2013-08-31 16:08:00,
2013-08-31 12:13:00,76.7,72.0,29.78,North,357,1.3,1.8,85,0.00,,,0.00,WUHU216HW,2013-08-31 16:13:00,
2013-08-31 12:18:00,76.5,71.8,29.78,North,0,2.0,2.5,85,0.00,,,0.00,WUHU216HW,2013-08-31 16:18:00,
2013-08-31 12:23:00,76.7,72.0,29.78,NNE,23,1.7,2.7,85,0.00,,,0.00,WUHU216HW,2013-08-31 16:23:00,
2013-08-31 12:28:00,77.4,72.3,29.78,NE,45,3.4,4.5,84,0.00,,,0.00,WUHU216HW,2013-08-31 16:28:00,
2013-08-31 12:33:00,77.9,72.8,29.78,NNW,345,1.9,3.4,84,0.00,,,0.00,WUHU216HW,2013-08-31 16:33:00,
2013-08-31 12:38:00,78.7,73.6,29.79,East,79,1.5,2.7,84,0.00,,,0.00,WUHU216HW,2013-08-31 16:38:00,
2013-08-31 12:44:00,79.2,73.7,29.79,North,1,1.1,1.8,83,0.00,,,0.00,WUHU216HW,2013-08-31 16:44:00,
2013-08-31 12:49:00,78.5,72.6,29.79,ESE,106,1.5,2.2,82,0.00,,,0.00,WUHU216HW,2013-08-31 16:49:00,
2013-08-31 12:54:00,78.1,72.6,29.79,East,84,4.7,5.4,83,0.00,,,0.00,WUHU216HW,2013-08-31 16:54:00,
2013-08-31 12:59:00,78.5,73.0,29.79,NNE,29,1.7,3.1,83,0.00,,,0.00,WUHU216HW,2013-08-31 16:59:00,
2013-08-31 13:04:00,78.8,73.3,29.78,NNE,21,2.1,3.4,83,0.00,,,0.00,WUHU216HW,2013-08-31 17:04:00,
2013-08-31 13:09:00,78.8,72.9,29.78,NNE,23,2.8,5.1,82,0.00,,,0.00,WUHU216HW,2013-08-31 17:09:00,
2013-08-31 13:14:00,79.2,73.7,29.79,ENE,71,1.5,1.8,83,0.00,,,0.00,WUHU216HW,2013-08-31 17:14:00,
2013-08-31 13:19:00,79.2,73.3,29.78,NNE,16,2.2,3.6,82,0.00,,,0.00,WUHU216HW,2013-08-31 17:19:00,
2013-08-31 13:24:00,79.2,72.9,29.79,NNE,30,1.8,2.7,81,0.00,,,0.00,WUHU216HW,2013-08-31 17:24:00,
2013-08-31 13:29:00,79.0,72.7,29.79,WNW,302,0.4,0.4,81,0.00,,,0.00,WUHU216HW,2013-08-31 17:29:00,
2013-08-31 13:34:00,78.8,72.5,29.79,North,3,1.1,1.3,81,0.00,,,0.00,WUHU216HW,2013-08-31 17:34:00,
2013-08-31 13:39:00,78.8,72.5,29.79,NE,40,0.8,1.3,81,0.00,,,0.00,WUHU216HW,2013-08-31 17:39:00,
2013-08-31 13:44:00,79.0,72.7,29.79,WNW,293,0.5,0.9,81,0.00,,,0.00,WUHU216HW,2013-08-31 17:44:00,
2013-08-31 13:49:00,79.6,72.9,29.79,NW,325,0.3,0.7,80,0.00,,,0.00,WUHU216HW,2013-08-31 17:49:00,
2013-08-31 13:54:00,79.7,73.0,29.79,ENE,63,1.8,2.5,80,0.00,,,0.00,WUHU216HW,2013-08-31 17:54:00,
2013-08-31 13:59:00,80.1,73.4,29.79,NNE,24,1.6,2.5,80,0.00,,,0.00,WUHU216HW,2013-08-31 17:59:00,
2013-08-31 14:04:00,80.5,73.8,29.79,ESE,108,2.0,2.5,80,0.00,,,0.00,WUHU216HW,2013-08-31 18:04:00,
2013-08-31 14:09:00,80.6,73.1,29.78,NNE,20,3.4,3.8,78,0.00,,,0.00,WUHU216HW,2013-08-31 18:09:00,
2013-08-31 14:14:00,80.6,72.7,29.79,ENE,58,0.8,1.1,76,0.00,,,0.00,WUHU216HW,2013-08-31 18:14:00,
2013-08-31 14:19:00,81.4,73.9,29.78,WSW,246,0.9,1.1,78,0.00,,,0.00,WUHU216HW,2013-08-31 18:19:00,
2013-08-31 14:24:00,82.3,74.3,29.79,East,83,2.5,3.4,76,0.00,,,0.00,WUHU216HW,2013-08-31 18:24:00,
2013-08-31 14:29:00,82.4,73.5,29.79,North,2,1.0,1.3,74,0.00,,,0.00,WUHU216HW,2013-08-31 18:29:00,
2013-08-31 14:34:00,82.1,73.3,29.79,ENE,67,2.5,2.9,74,0.00,,,0.00,WUHU216HW,2013-08-31 18:34:00,
2013-08-31 14:39:00,81.7,72.4,29.79,ENE,65,2.0,2.5,73,0.00,,,0.00,WUHU216HW,2013-08-31 18:39:00,
2013-08-31 14:44:00,81.4,72.1,29.79,ENE,58,2.7,4.0,73,0.00,,,0.00,WUHU216HW,2013-08-31 18:44:00,
2013-08-31 14:49:00,81.4,72.6,29.79,East,85,3.0,4.0,74,0.00,,,0.00,WUHU216HW,2013-08-31 18:49:00,
2013-08-31 14:54:00,81.7,72.9,29.79,ENE,76,3.7,4.7,74,0.00,,,0.00,WUHU216HW,2013-08-31 18:54:00,
2013-08-31 14:59:00,82.1,72.8,29.79,East,83,2.5,3.1,73,0.00,,,0.00,WUHU216HW,2013-08-31 18:59:00,
2013-08-31 15:04:00,82.1,73.3,29.79,NE,40,1.7,2.7,74,0.00,,,0.00,WUHU216HW,2013-08-31 19:04:00,
2013-08-31 15:09:00,81.7,72.9,29.79,NNE,25,3.7,4.0,74,0.00,,,0.00,WUHU216HW,2013-08-31 19:09:00,
2013-08-31 15:14:00,81.7,72.9,29.79,NNE,13,4.8,5.1,74,0.00,,,0.00,WUHU216HW,2013-08-31 19:14:00,
2013-08-31 15:19:00,81.7,72.9,29.79,East,84,3.7,4.7,74,0.00,,,0.00,WUHU216HW,2013-08-31 19:19:00,
2013-08-31 15:24:00,82.1,73.3,29.79,ENE,61,1.6,4.9,74,0.00,,,0.00,WUHU216HW,2013-08-31 19:24:00,
2013-08-31 15:29:00,82.4,74.4,29.79,ENE,78,1.3,1.8,76,0.00,,,0.00,WUHU216HW,2013-08-31 19:29:00,
2013-08-31 15:35:00,82.8,74.4,29.78,North,354,1.8,3.1,75,0.00,,,0.00,WUHU216HW,2013-08-31 19:35:00,
2013-08-31 15:40:00,83.2,74.8,29.78,NNW,329,0.7,0.9,75,0.00,,,0.00,WUHU216HW,2013-08-31 19:40:00,
2013-08-31 15:45:00,83.2,73.9,29.78,NNE,20,2.6,4.5,73,0.00,,,0.00,WUHU216HW,2013-08-31 19:45:00,
2013-08-31 15:50:00,83.2,74.3,29.78,NNE,30,3.0,3.4,74,0.00,,,0.00,WUHU216HW,2013-08-31 19:50:00,
2013-08-31 15:55:00,83.2,73.9,29.78,NE,34,3.1,4.0,73,0.00,,,0.00,WUHU216HW,2013-08-31 19:55:00,
2013-08-31 16:00:00,82.4,72.7,29.78,NE,45,1.6,1.8,72,0.00,,,0.00,WUHU216HW,2013-08-31 20:00:00,
2013-08-31 16:05:00,82.1,73.3,29.78,NE,35,1.7,1.8,74,0.00,,,0.00,WUHU216HW,2013-08-31 20:05:00,
2013-08-31 16:10:00,81.9,72.6,29.77,North,352,2.8,3.6,73,0.00,,,0.00,WUHU216HW,2013-08-31 20:10:00,
2013-08-31 16:15:00,81.5,72.7,29.78,North,0,1.2,1.6,74,0.00,,,0.00,WUHU216HW,2013-08-31 20:15:00,
2013-08-31 16:20:00,81.2,72.4,29.77,East,84,2.2,3.4,74,0.00,,,0.00,WUHU216HW,2013-08-31 20:20:00,
2013-08-31 16:25:00,81.2,72.4,29.77,ENE,60,2.5,4.7,74,0.00,,,0.00,WUHU216HW,2013-08-31 20:25:00,
2013-08-31 16:30:00,80.8,72.4,29.77,NE,37,2.8,4.0,75,0.00,,,0.00,WUHU216HW,2013-08-31 20:30:00,
2013-08-31 16:35:00,81.0,72.2,29.76,ENE,74,2.7,3.4,74,0.00,,,0.00,WUHU216HW,2013-08-31 20:35:00,
2013-08-31 16:40:00,81.0,71.8,29.77,North,3,3.5,4.7,73,0.00,,,0.00,WUHU216HW,2013-08-31 20:40:00,
2013-08-31 16:45:00,81.0,72.2,29.76,NNE,17,2.1,2.5,74,0.00,,,0.00,WUHU216HW,2013-08-31 20:45:00,
2013-08-31 16:50:00,80.8,72.0,29.76,NNE,14,1.2,1.6,74,0.00,,,0.00,WUHU216HW,2013-08-31 20:50:00,
2013-08-31 16:55:00,80.6,71.8,29.77,East,93,3.4,3.6,74,0.00,,,0.00,WUHU216HW,2013-08-31 20:55:00,
2013-08-31 17:00:00,80.5,71.7,29.77,NNE,16,3.1,3.8,74,0.00,,,0.00,WUHU216HW,2013-08-31 21:00:00,
2013-08-31 17:05:00,80.8,72.0,29.77,East,81,2.0,2.5,74,0.00,,,0.00,WUHU216HW,2013-08-31 21:05:00,
2013-08-31 17:10:00,80.5,71.3,29.76,NE,44,1.9,2.9,73,0.00,,,0.00,WUHU216HW,2013-08-31 21:10:00,
2013-08-31 17:15:00,79.6,70.8,29.76,NNE,26,2.5,3.8,74,0.00,,,0.00,WUHU216HW,2013-08-31 21:15:00,
2013-08-31 17:20:00,78.8,70.5,29.76,NE,56,1.6,2.0,75,0.00,,,0.00,WUHU216HW,2013-08-31 21:20:00,
2013-08-31 17:25:00,78.5,70.6,29.76,North,4,1.8,2.5,76,0.00,,,0.00,WUHU216HW,2013-08-31 21:25:00,
2013-08-31 17:30:00,78.3,70.8,29.76,NNE,33,1.0,1.3,78,0.00,,,0.00,WUHU216HW,2013-08-31 21:30:00,
2013-08-31 17:35:00,78.8,70.9,29.77,ENE,63,1.5,2.7,76,0.00,,,0.00,WUHU216HW,2013-08-31 21:35:00,
2013-08-31 17:40:00,79.0,71.1,29.77,NE,39,0.9,1.1,76,0.00,,,0.00,WUHU216HW,2013-08-31 21:40:00,
2013-08-31 17:45:00,78.5,70.6,29.77,ENE,70,2.5,4.7,76,0.00,,,0.00,WUHU216HW,2013-08-31 21:45:00,
2013-08-31 17:50:00,78.1,70.7,29.77,NNE,27,1.4,2.2,78,0.00,,,0.00,WUHU216HW,2013-08-31 21:50:00,
2013-08-31 17:55:00,78.1,70.7,29.77,East,85,1.8,2.9,78,0.00,,,0.00,WUHU216HW,2013-08-31 21:55:00,
2013-08-31 18:00:00,78.3,71.3,29.77,North,0,1.7,2.0,79,0.00,,,0.00,WUHU216HW,2013-08-31 22:00:00,
2013-08-31 18:05:00,78.5,71.0,29.77,NNE,17,1.7,2.5,78,0.00,,,0.00,WUHU216HW,2013-08-31 22:05:00,
2013-08-31 18:11:00,78.3,70.8,29.76,NNE,27,1.9,2.5,78,0.00,,,0.00,WUHU216HW,2013-08-31 22:11:00,
2013-08-31 18:16:00,77.9,70.5,29.76,North,11,2.4,4.0,78,0.00,,,0.00,WUHU216HW,2013-08-31 22:16:00,
2013-08-31 18:21:00,77.4,70.4,29.76,NNE,15,0.6,1.1,79,0.00,,,0.00,WUHU216HW,2013-08-31 22:21:00,
2013-08-31 18:26:00,77.4,70.4,29.76,ENE,71,0.9,1.3,79,0.00,,,0.00,WUHU216HW,2013-08-31 22:26:00,
2013-08-31 18:31:00,77.4,70.8,29.76,ENE,70,2.0,2.5,80,0.00,,,0.00,WUHU216HW,2013-08-31 22:31:00,
2013-08-31 18:36:00,77.4,70.8,29.76,ENE,64,2.7,3.6,80,0.00,,,0.00,WUHU216HW,2013-08-31 22:36:00,
2013-08-31 18:41:00,77.4,70.8,29.75,East,90,1.2,1.3,80,0.00,,,0.00,WUHU216HW,2013-08-31 22:41:00,
2013-08-31 18:46:00,77.4,70.4,29.75,North,0,1.1,2.0,79,0.00,,,0.00,WUHU216HW,2013-08-31 22:46:00,
2013-08-31 18:51:00,77.6,70.6,29.75,East,89,3.4,4.7,79,0.00,,,0.00,WUHU216HW,2013-08-31 22:51:00,
2013-08-31 18:56:00,77.4,70.4,29.75,East,83,2.5,3.1,79,0.00,,,0.00,WUHU216HW,2013-08-31 22:56:00,
2013-08-31 19:01:00,76.9,69.9,29.75,North,3,2.6,3.8,79,0.00,,,0.00,WUHU216HW,2013-08-31 23:01:00,
2013-08-31 19:06:00,76.3,69.7,29.75,NNE,29,2.6,3.4,80,0.00,,,0.00,WUHU216HW,2013-08-31 23:06:00,
2013-08-31 19:11:00,75.6,69.0,29.75,East,90,2.1,2.2,80,0.00,,,0.00,WUHU216HW,2013-08-31 23:11:00,
2013-08-31 19:16:00,75.2,68.6,29.75,ENE,73,1.8,3.1,80,0.00,,,0.00,WUHU216HW,2013-08-31 23:16:00,
2013-08-31 19:21:00,74.5,68.3,29.76,NNE,29,0.3,1.6,81,0.00,,,0.00,WUHU216HW,2013-08-31 23:21:00,
2013-08-31 19:26:00,74.2,68.4,29.76,North,0,0.5,0.7,82,0.00,,,0.00,WUHU216HW,2013-08-31 23:26:00,
2013-08-31 19:31:00,73.8,68.0,29.76,North,0,0.0,0.0,82,0.00,,,0.00,WUHU216HW,2013-08-31 23:31:00,
2013-08-31 19:36:00,73.6,68.2,29.75,NE,34,0.5,0.9,83,0.00,,,0.00,WUHU216HW,2013-08-31 23:36:00,
2013-08-31 19:41:00,73.3,67.9,29.75,NNE,23,0.5,0.9,83,0.00,,,0.00,WUHU216HW,2013-08-31 23:41:00,
2013-08-31 19:46:00,72.7,67.7,29.75,North,0,0.0,0.4,84,0.00,,,0.00,WUHU216HW,2013-08-31 23:46:00,
2013-08-31 19:51:00,72.4,67.8,29.75,North,0,0.0,0.0,85,0.00,,,0.00,WUHU216HW,2013-08-31 23:51:00,
2013-08-31 19:56:00,71.8,67.2,29.75,North,0,0.0,0.0,85,0.00,,,0.00,WUHU216HW,2013-08-31 23:56:00,
2013-08-31 20:01:00,71.3,67.1,29.75,North,0,0.0,0.0,87,0.00,,,0.00,WUHU216HW,2013-09-01 00:01:00,
2013-08-31 20:06:00,70.9,66.7,29.75,North,0,0.0,0.0,87,0.00,,,0.00,WUHU216HW,2013-09-01 00:06:00,
2013-08-31 20:11:00,70.6,66.4,29.75,North,0,0.0,0.0,87,0.00,,,0.00,WUHU216HW,2013-09-01 00:11:00,
2013-08-31 20:16:00,70.2,66.4,29.75,North,0,0.0,0.0,88,0.00,,,0.00,WUHU216HW,2013-09-01 00:16:00,
2013-08-31 20:21:00,69.8,66.3,29.76,North,0,0.0,0.0,89,0.00,,,0.00,WUHU216HW,2013-09-01 00:21:00,
2013-08-31 20:26:00,69.3,65.8,29.76,North,0,0.0,0.0,89,0.00,,,0.00,WUHU216HW,2013-09-01 00:26:00,
2013-08-31 20:31:00,68.9,65.8,29.76,North,0,0.0,0.0,90,0.00,,,0.00,WUHU216HW,2013-09-01 00:31:00,
2013-08-31 20:36:00,68.8,65.7,29.76,North,0,0.0,0.0,90,0.00,,,0.00,WUHU216HW,2013-09-01 00:36:00,
2013-08-31 20:41:00,68.4,65.3,29.76,North,0,0.0,0.0,90,0.00,,,0.00,WUHU216HW,2013-09-01 00:41:00,
2013-08-31 20:46:00,68.0,65.3,29.76,North,0,0.0,0.0,91,0.00,,,0.00,WUHU216HW,2013-09-01 00:46:00,
2013-08-31 20:51:00,67.7,65.0,29.76,North,0,0.0,0.0,91,0.00,,,0.00,WUHU216HW,2013-09-01 00:51:00,
2013-08-31 20:56:00,67.3,64.6,29.77,North,0,0.0,0.0,91,0.00,,,0.00,WUHU216HW,2013-09-01 00:56:00,
2013-08-31 21:01:00,67.1,64.7,29.77,North,0,0.0,0.0,92,0.00,,,0.00,WUHU216HW,2013-09-01 01:01:00,
2013-08-31 21:06:00,66.8,64.4,29.77,North,0,0.0,0.0,92,0.00,,,0.00,WUHU216HW,2013-09-01 01:06:00,
2013-08-31 21:11:00,66.6,64.2,29.77,North,0,0.0,0.0,92,0.00,,,0.00,WUHU216HW,2013-09-01 01:11:00,
2013-08-31 21:17:00,66.2,63.8,29.78,North,0,0.0,0.0,92,0.00,,,0.00,WUHU216HW,2013-09-01 01:17:00,
2013-08-31 21:22:00,66.1,64.1,29.77,North,0,0.0,0.0,93,0.00,,,0.00,WUHU216HW,2013-09-01 01:22:00,
2013-08-31 21:27:00,65.9,63.9,29.77,North,0,0.0,0.0,93,0.00,,,0.00,WUHU216HW,2013-09-01 01:27:00,
2013-08-31 21:32:00,65.5,63.8,29.77,North,0,0.0,0.0,94,0.00,,,0.00,WUHU216HW,2013-09-01 01:32:00,
2013-08-31 21:37:00,65.3,63.6,29.78,North,0,0.0,0.0,94,0.00,,,0.00,WUHU216HW,2013-09-01 01:37:00,
2013-08-31 21:42:00,65.2,63.5,29.77,North,0,0.0,0.0,94,0.00,,,0.00,WUHU216HW,2013-09-01 01:42:00,
2013-08-31 21:47:00,65.0,63.3,29.78,North,0,0.0,0.0,94,0.00,,,0.00,WUHU216HW,2013-09-01 01:47:00,
2013-08-31 21:52:00,64.8,63.1,29.77,North,0,0.0,0.0,94,0.00,,,0.00,WUHU216HW,2013-09-01 01:52:00,
2013-08-31 21:57:00,64.6,62.6,29.77,North,0,0.0,0.0,93,0.00,,,0.00,WUHU216HW,2013-09-01 01:57:00,
2013-08-31 22:02:00,64.4,62.7,29.77,North,0,0.0,0.0,94,0.00,,,0.00,WUHU216HW,2013-09-01 02:02:00,
2013-08-31 22:07:00,64.4,62.7,29.77,NNE,23,0.1,0.2,94,0.00,,,0.00,WUHU216HW,2013-09-01 02:07:00,
2013-08-31 22:12:00,64.3,62.6,29.77,North,0,0.0,0.0,94,0.00,,,0.00,WUHU216HW,2013-09-01 02:12:00,
2013-08-31 22:17:00,64.1,62.4,29.77,NNE,23,0.6,0.9,94,0.00,,,0.00,WUHU216HW,2013-09-01 02:17:00,
2013-08-31 22:22:00,64.1,62.4,29.76,NNE,23,0.2,0.2,94,0.00,,,0.00,WUHU216HW,2013-09-01 02:22:00,
2013-08-31 22:27:00,63.9,62.6,29.76,NNE,23,0.3,0.7,96,0.00,,,0.00,WUHU216HW,2013-09-01 02:27:00,
2013-08-31 22:32:00,63.9,62.6,29.76,North,0,0.0,0.0,96,0.00,,,0.00,WUHU216HW,2013-09-01 02:32:00,
2013-08-31 22:37:00,63.7,62.4,29.77,North,0,0.0,0.0,96,0.00,,,0.00,WUHU216HW,2013-09-01 02:37:00,
2013-08-31 22:42:00,63.7,62.4,29.77,North,0,0.0,0.0,96,0.00,,,0.00,WUHU216HW,2013-09-01 02:42:00,
2013-08-31 22:47:00,63.7,62.4,29.77,NNE,23,0.3,0.4,96,0.00,,,0.00,WUHU216HW,2013-09-01 02:47:00,
2013-08-31 22:52:00,63.5,62.2,29.77,NNE,23,0.1,0.2,96,0.00,,,0.00,WUHU216HW,2013-09-01 02:52:00,
2013-08-31 22:57:00,63.5,62.2,29.77,North,0,0.0,0.0,96,0.00,,,0.00,WUHU216HW,2013-09-01 02:57:00,
2013-08-31 23:02:00,63.4,62.1,29.78,North,0,0.0,0.0,96,0.00,,,0.00,WUHU216HW,2013-09-01 03:02:00,
2013-08-31 23:07:00,63.4,62.1,29.78,North,0,0.0,0.0,96,0.00,,,0.00,WUHU216HW,2013-09-01 03:07:00,
2013-08-31 23:12:00,63.4,62.1,29.78,North,0,0.0,0.0,96,0.00,,,0.00,WUHU216HW,2013-09-01 03:12:00,
2013-08-31 23:17:00,63.2,61.9,29.78,North,0,0.0,0.0,96,0.00,,,0.00,WUHU216HW,2013-09-01 03:17:00,
2013-08-31 23:22:00,63.0,61.7,29.78,North,0,0.0,0.0,96,0.00,,,0.00,WUHU216HW,2013-09-01 03:22:00,
2013-08-31 23:27:00,63.0,61.7,29.78,North,0,0.0,0.0,96,0.00,,,0.00,WUHU216HW,2013-09-01 03:27:00,
2013-08-31 23:32:00,63.0,61.7,29.78,NNE,23,0.3,0.7,96,0.00,,,0.00,WUHU216HW,2013-09-01 03:32:00,
2013-08-31 23:37:00,63.0,61.7,29.79,NNE,23,0.1,0.4,96,0.00,,,0.00,WUHU216HW,2013-09-01 03:37:00,
2013-08-31 23:42:00,63.4,62.1,29.79,NNE,23,0.0,0.2,96,0.00,,,0.00,WUHU216HW,2013-09-01 03:42:00,
2013-08-31 23:47:00,63.5,62.2,29.79,North,0,0.0,0.0,96,0.00,,,0.00,WUHU216HW,2013-09-01 03:47:00,
2013-08-31 23:52:00,63.7,62.4,29.79,North,0,0.0,0.0,96,0.00,,,0.00,WUHU216HW,2013-09-01 03:52:00,
2013-08-31 23:57:00,64.1,62.8,29.79,North,0,0.0,0.0,96,0.00,,,0.00,WUHU216HW,2013-09-01 03:57:00,